createdAt,value
2024-02-21T00:00:31.365Z,88.80
2024-02-21T00:03:00.470Z,88.90
2024-02-21T00:05:27.467Z,89.10
2024-02-21T00:07:54.149Z,88.90
2024-02-21T00:10:20.759Z,88.70
2024-02-21T00:12:47.290Z,89.00
2024-02-21T00:15:13.794Z,88.70
2024-02-21T00:17:40.379Z,88.80
2024-02-21T00:20:06.948Z,88.80
2024-02-21T00:22:33.544Z,88.70
2024-02-21T00:25:00.064Z,88.70
2024-02-21T00:27:26.609Z,88.70
2024-02-21T00:29:53.145Z,88.90
2024-02-21T00:32:19.683Z,88.90
2024-02-21T00:34:46.215Z,89.00
2024-02-21T00:37:12.801Z,88.90
2024-02-21T00:39:39.318Z,88.60
2024-02-21T00:42:05.821Z,88.60
2024-02-21T00:44:32.372Z,88.70
2024-02-21T00:46:58.943Z,88.60
2024-02-21T00:49:25.502Z,88.40
2024-02-21T00:51:52.012Z,88.40
2024-02-21T00:54:18.541Z,88.70
2024-02-21T00:56:45.043Z,88.70
2024-02-21T00:59:11.575Z,88.60
2024-02-21T01:01:38.147Z,88.50
2024-02-21T01:04:04.902Z,88.80
2024-02-21T01:06:31.697Z,88.80
2024-02-21T01:08:58.268Z,88.80
2024-02-21T01:11:24.831Z,88.80
2024-02-21T01:13:51.509Z,88.90
2024-02-21T01:16:18.153Z,88.60
2024-02-21T01:18:44.785Z,88.80
2024-02-21T01:21:11.624Z,88.90
2024-02-21T01:23:38.181Z,88.80
2024-02-21T01:26:04.710Z,88.70
2024-02-21T01:28:31.305Z,88.80
2024-02-21T01:30:57.823Z,88.80
2024-02-21T01:33:24.370Z,88.90
2024-02-21T01:35:51.122Z,88.80
2024-02-21T01:38:17.810Z,88.80
2024-02-21T01:40:45.491Z,89.20
2024-02-21T01:43:12.165Z,89.20
2024-02-21T01:45:38.703Z,89.20
2024-02-21T01:48:05.259Z,89.00
2024-02-21T01:50:31.854Z,89.00
2024-02-21T01:52:58.485Z,89.00
2024-02-21T01:55:25.063Z,88.70
2024-02-21T01:57:51.596Z,88.60
2024-02-21T02:00:18.121Z,88.40
2024-02-21T02:02:44.623Z,88.60
2024-02-21T02:05:11.211Z,89.00
2024-02-21T02:07:37.769Z,89.00
2024-02-21T02:10:04.324Z,88.70
2024-02-21T02:12:30.873Z,88.50
2024-02-21T02:14:57.416Z,88.50
2024-02-21T02:17:23.917Z,88.50
2024-02-21T02:19:50.607Z,88.60
2024-02-21T02:22:17.210Z,88.80
2024-02-21T02:24:43.745Z,88.70
2024-02-21T02:27:10.246Z,88.50
2024-02-21T02:29:36.778Z,88.70
2024-02-21T02:32:03.342Z,88.80
2024-02-21T02:34:29.904Z,88.80
2024-02-21T02:36:56.418Z,89.00
2024-02-21T02:39:22.936Z,89.10
2024-02-21T02:41:49.474Z,89.50
2024-02-21T02:44:15.978Z,88.60
2024-02-21T02:46:42.563Z,88.60
2024-02-21T02:49:09.250Z,88.60
2024-02-21T02:51:35.883Z,88.90
2024-02-21T02:54:02.394Z,88.50
2024-02-21T02:56:28.976Z,88.40
2024-02-21T02:58:55.623Z,88.60
2024-02-21T03:01:22.206Z,88.70
2024-02-21T03:03:48.842Z,88.50
2024-02-21T03:06:15.490Z,88.50
2024-02-21T03:08:42.023Z,88.20
2024-02-21T03:11:08.674Z,88.80
2024-02-21T03:13:35.288Z,88.80
2024-02-21T03:16:01.838Z,88.60
2024-02-21T03:18:28.467Z,88.70
2024-02-21T03:20:55.042Z,89.00
2024-02-21T03:23:21.558Z,89.00
2024-02-21T03:25:48.086Z,89.00
2024-02-21T03:28:14.673Z,89.00
2024-02-21T03:30:41.231Z,89.10
2024-02-21T03:33:07.761Z,88.90
2024-02-21T03:35:34.327Z,88.70
2024-02-21T03:38:00.896Z,88.50
2024-02-21T03:40:27.448Z,88.10
2024-02-21T03:42:53.988Z,88.30
2024-02-21T03:45:20.489Z,88.50
2024-02-21T03:47:47.070Z,88.20
2024-02-21T03:50:13.772Z,88.30
2024-02-21T03:52:40.446Z,88.60
2024-02-21T03:55:06.972Z,88.60
2024-02-21T03:57:33.505Z,88.90
2024-02-21T04:00:00.108Z,88.60
2024-02-21T04:02:26.672Z,88.40
2024-02-21T04:04:53.339Z,88.30
2024-02-21T04:07:19.893Z,88.60
2024-02-21T04:09:46.433Z,88.90
2024-02-21T04:12:12.972Z,89.00
2024-02-21T04:14:39.467Z,89.10
2024-02-21T04:17:06.056Z,89.10
2024-02-21T04:19:32.771Z,89.30
2024-02-21T04:21:59.384Z,89.20
2024-02-21T04:24:25.878Z,88.60
2024-02-21T04:26:52.385Z,88.80
2024-02-21T04:29:18.900Z,88.70
2024-02-21T04:31:45.507Z,88.40
2024-02-21T04:34:12.069Z,88.60
2024-02-21T04:36:38.634Z,88.60
2024-02-21T04:39:05.137Z,88.70
2024-02-21T04:41:32.038Z,88.90
2024-02-21T04:43:58.615Z,89.00
2024-02-21T04:46:25.311Z,89.00
2024-02-21T04:48:51.979Z,89.00
2024-02-21T04:51:18.569Z,88.70
2024-02-21T04:53:45.103Z,88.50
2024-02-21T04:56:11.691Z,88.50
2024-02-21T04:58:38.294Z,88.40
2024-02-21T05:01:04.874Z,88.60
2024-02-21T05:03:31.417Z,88.60
2024-02-21T05:05:57.970Z,88.40
2024-02-21T05:08:24.547Z,88.60
2024-02-21T05:10:51.113Z,88.60
2024-02-21T05:13:17.724Z,88.80
2024-02-21T05:15:44.273Z,89.10
2024-02-21T05:18:10.935Z,89.00
2024-02-21T05:20:37.615Z,88.40
2024-02-21T05:23:04.247Z,88.50
2024-02-21T05:25:30.829Z,88.50
2024-02-21T05:27:57.542Z,88.50
2024-02-21T05:30:24.069Z,88.50
2024-02-21T05:32:50.629Z,88.40
2024-02-21T05:35:17.321Z,88.30
2024-02-21T05:37:43.873Z,88.70
2024-02-21T05:40:10.421Z,88.60
2024-02-21T05:42:36.943Z,88.60
2024-02-21T05:45:03.478Z,88.70
2024-02-21T05:47:29.996Z,88.60
2024-02-21T05:49:56.563Z,88.50
2024-02-21T05:52:23.120Z,88.70
2024-02-21T05:54:51.083Z,88.60
2024-02-21T05:57:17.714Z,88.70
2024-02-21T05:59:44.262Z,88.70
2024-02-21T06:02:10.775Z,88.70
2024-02-21T06:04:37.390Z,88.70
2024-02-21T06:07:04.005Z,88.70
2024-02-21T06:09:30.589Z,88.40
2024-02-21T06:11:57.131Z,88.20
2024-02-21T06:14:23.712Z,88.30
2024-02-21T06:16:50.285Z,88.40
2024-02-21T06:19:17.073Z,88.10
2024-02-21T06:21:43.760Z,88.20
2024-02-21T06:24:10.283Z,88.10
2024-02-21T06:26:36.797Z,88.20
2024-02-21T06:29:03.728Z,88.40
2024-02-21T06:31:30.826Z,88.40
2024-02-21T06:33:57.536Z,88.30
2024-02-21T06:36:24.106Z,88.20
2024-02-21T06:38:50.732Z,88.20
2024-02-21T06:41:17.337Z,88.10
2024-02-21T06:43:43.887Z,87.90
2024-02-21T06:46:10.419Z,88.00
2024-02-21T06:48:37.033Z,87.60
2024-02-21T06:51:03.601Z,87.80
2024-02-21T06:53:30.097Z,87.80
2024-02-21T06:55:56.696Z,87.70
2024-02-21T06:58:23.283Z,87.60
2024-02-21T07:00:49.888Z,87.70
2024-02-21T07:03:16.428Z,88.30
2024-02-21T07:05:43.078Z,87.50
2024-02-21T07:08:09.692Z,87.50
2024-02-21T07:10:36.325Z,87.60
2024-02-21T07:13:02.858Z,87.40
2024-02-21T07:15:29.362Z,87.40
2024-02-21T07:17:55.903Z,87.20
2024-02-21T07:20:22.598Z,87.40
2024-02-21T07:22:49.297Z,87.40
2024-02-21T07:25:15.898Z,87.00
2024-02-21T07:27:42.427Z,87.50
2024-02-21T07:30:08.922Z,87.50
2024-02-21T07:32:35.455Z,87.50
2024-02-21T07:35:02.277Z,87.40
2024-02-21T07:37:31.063Z,87.30
2024-02-21T07:39:59.257Z,87.60
2024-02-21T07:42:25.786Z,87.50
2024-02-21T07:44:52.299Z,87.40
2024-02-21T07:47:18.839Z,87.40
2024-02-21T07:49:45.459Z,87.30
2024-02-21T07:52:12.085Z,87.00
2024-02-21T07:54:38.599Z,87.10
2024-02-21T07:57:05.130Z,87.10
2024-02-21T07:59:31.661Z,87.30
2024-02-21T08:01:58.222Z,87.50
2024-02-21T08:04:24.851Z,87.20
2024-02-21T08:06:51.460Z,87.30
2024-02-21T08:09:17.962Z,87.50
2024-02-21T08:11:44.502Z,87.60
2024-02-21T08:14:11.106Z,87.20
2024-02-21T08:16:37.678Z,87.50
2024-02-21T08:19:04.228Z,87.40
2024-02-21T08:21:30.748Z,87.10
2024-02-21T08:23:57.261Z,87.10
2024-02-21T08:26:23.775Z,87.10
2024-02-21T08:28:50.390Z,87.10
2024-02-21T08:31:16.981Z,87.00
2024-02-21T08:33:43.582Z,87.00
2024-02-21T08:36:10.094Z,87.20
2024-02-21T08:38:36.609Z,86.90
2024-02-21T08:41:03.155Z,86.90
2024-02-21T08:43:29.814Z,87.10
2024-02-21T08:45:56.354Z,86.80
2024-02-21T08:48:22.962Z,87.00
2024-02-21T08:50:49.603Z,87.20
2024-02-21T08:53:16.170Z,86.80
2024-02-21T08:55:42.786Z,87.20
2024-02-21T08:58:09.310Z,87.40
2024-02-21T09:00:35.819Z,87.40
2024-02-21T09:03:02.347Z,87.30
2024-02-21T09:05:28.981Z,87.10
2024-02-21T09:07:55.796Z,87.00
2024-02-21T09:10:22.599Z,86.80
2024-02-21T09:12:49.164Z,87.00
2024-02-21T09:15:15.656Z,87.00
2024-02-21T09:17:42.202Z,87.10
2024-02-21T09:20:08.777Z,87.20
2024-02-21T09:22:35.382Z,86.90
2024-02-21T09:25:01.964Z,86.90
2024-02-21T09:27:28.534Z,87.00
2024-02-21T09:29:55.247Z,87.00
2024-02-21T09:32:21.822Z,86.70
2024-02-21T09:34:48.568Z,87.00
2024-02-21T09:37:15.212Z,87.10
2024-02-21T09:39:41.740Z,86.70
2024-02-21T09:42:08.232Z,87.00
2024-02-21T09:44:34.752Z,87.20
2024-02-21T09:47:01.359Z,87.20
2024-02-21T09:49:28.079Z,86.80
2024-02-21T09:51:54.616Z,87.10
2024-02-21T09:54:21.153Z,87.50
2024-02-21T09:56:47.665Z,87.50
2024-02-21T09:59:14.161Z,87.30
2024-02-21T10:01:40.833Z,87.20
2024-02-21T10:04:07.487Z,87.40
2024-02-21T10:06:34.175Z,87.60
2024-02-21T10:09:00.920Z,86.90
2024-02-21T10:11:27.590Z,87.00
2024-02-21T10:13:54.201Z,87.10
2024-02-21T10:16:20.780Z,87.40
2024-02-21T10:18:47.328Z,87.40
2024-02-21T10:21:13.875Z,87.40
2024-02-21T10:23:40.388Z,87.50
2024-02-21T10:26:07.107Z,87.40
2024-02-21T10:28:33.772Z,86.90
2024-02-21T10:31:00.332Z,87.10
2024-02-21T10:33:26.949Z,87.30
2024-02-21T10:35:53.544Z,87.20
2024-02-21T10:38:20.056Z,87.20
2024-02-21T10:40:46.602Z,87.30
2024-02-21T10:43:13.116Z,87.40
2024-02-21T10:45:39.617Z,87.50
2024-02-21T10:48:06.232Z,87.70
2024-02-21T10:50:32.773Z,87.40
2024-02-21T10:52:59.377Z,87.30
2024-02-21T10:55:25.928Z,87.50
2024-02-21T10:57:52.434Z,87.30
2024-02-21T11:00:18.942Z,87.40
2024-02-21T11:02:45.522Z,87.30
2024-02-21T11:05:12.118Z,87.20
2024-02-21T11:07:38.789Z,87.30
2024-02-21T11:10:05.367Z,86.90
2024-02-21T11:12:31.957Z,87.10
2024-02-21T11:14:58.472Z,86.90
2024-02-21T11:17:24.995Z,86.90
2024-02-21T11:19:51.716Z,87.00
2024-02-21T11:22:18.564Z,86.70
2024-02-21T11:24:45.163Z,86.80
2024-02-21T11:27:11.694Z,86.70
2024-02-21T11:29:38.190Z,86.40
2024-02-21T11:32:04.765Z,86.70
2024-02-21T11:34:31.525Z,86.70
2024-02-21T11:36:58.153Z,86.60
2024-02-21T11:39:24.657Z,86.50
2024-02-21T11:41:51.161Z,86.10
2024-02-21T11:44:17.677Z,85.80
2024-02-21T11:46:44.218Z,86.00
2024-02-21T11:49:10.800Z,85.70
2024-02-21T11:51:37.329Z,85.50
2024-02-21T11:54:03.862Z,85.30
2024-02-21T11:56:30.387Z,85.40
2024-02-21T11:58:56.923Z,85.00
2024-02-21T12:01:23.504Z,85.50
2024-02-21T12:03:50.058Z,85.50
2024-02-21T12:06:16.709Z,85.40
2024-02-21T12:08:43.671Z,86.20
2024-02-21T12:11:10.274Z,85.80
2024-02-21T12:13:36.880Z,85.40
2024-02-21T12:16:03.421Z,84.80
2024-02-21T12:18:30.008Z,84.50
2024-02-21T12:20:56.539Z,84.90
2024-02-21T12:23:23.068Z,84.70
2024-02-21T12:25:49.603Z,85.00
2024-02-21T12:28:16.143Z,85.20
2024-02-21T12:30:42.641Z,85.00
2024-02-21T12:33:09.325Z,84.80
2024-02-21T12:35:35.902Z,84.60
2024-02-21T12:38:02.901Z,85.00
2024-02-21T12:40:29.527Z,84.70
2024-02-21T12:42:56.054Z,84.10
2024-02-21T12:45:22.568Z,84.10
2024-02-21T12:47:49.131Z,84.10
2024-02-21T12:50:15.704Z,84.20
2024-02-21T12:52:42.271Z,84.20
2024-02-21T12:55:08.789Z,84.40
2024-02-21T12:57:35.289Z,84.00
2024-02-21T13:00:01.825Z,84.00
2024-02-21T13:02:28.489Z,83.90
2024-02-21T13:04:55.117Z,84.70
2024-02-21T13:07:21.735Z,84.50
2024-02-21T13:09:48.293Z,84.90
2024-02-21T13:12:14.870Z,85.10
2024-02-21T13:14:41.438Z,85.10
2024-02-21T13:17:08.300Z,84.50
2024-02-21T13:19:35.209Z,84.60
2024-02-21T13:22:01.866Z,84.40
2024-02-21T13:24:28.383Z,84.00
2024-02-21T13:26:54.897Z,84.20
2024-02-21T13:29:21.394Z,84.00
2024-02-21T13:31:47.960Z,83.80
2024-02-21T13:34:14.631Z,83.50
2024-02-21T13:36:41.258Z,83.50
2024-02-21T13:39:07.768Z,83.40
2024-02-21T13:41:34.295Z,83.60
2024-02-21T13:44:00.877Z,83.50
2024-02-21T13:46:27.439Z,83.60
2024-02-21T13:48:54.000Z,84.10
2024-02-21T13:51:20.518Z,83.90
2024-02-21T13:53:47.035Z,83.70
2024-02-21T13:56:13.728Z,83.90
2024-02-21T13:58:40.352Z,84.00
2024-02-21T14:01:06.944Z,84.00
2024-02-21T14:03:33.547Z,84.00
2024-02-21T14:06:00.120Z,84.00
2024-02-21T14:08:26.656Z,83.70
2024-02-21T14:10:53.273Z,83.40
2024-02-21T14:13:19.887Z,83.10
2024-02-21T14:15:46.480Z,83.30
2024-02-21T14:18:13.109Z,83.10
2024-02-21T14:20:39.693Z,83.00
2024-02-21T14:23:06.364Z,83.10
2024-02-21T14:25:32.924Z,83.20
2024-02-21T14:27:59.432Z,83.40
2024-02-21T14:30:25.974Z,83.30
2024-02-21T14:32:52.595Z,83.10
2024-02-21T14:35:19.239Z,83.30
2024-02-21T14:37:45.766Z,83.40
2024-02-21T14:40:12.299Z,83.10
2024-02-21T14:42:38.810Z,83.10
2024-02-21T14:45:05.832Z,83.10
2024-02-21T14:47:32.960Z,83.60
2024-02-21T14:49:59.643Z,83.80
2024-02-21T14:52:26.242Z,83.00
2024-02-21T14:54:52.774Z,83.00
2024-02-21T14:57:19.274Z,83.70
2024-02-21T14:59:46.035Z,83.00
2024-02-21T15:02:12.641Z,83.40
2024-02-21T15:04:39.209Z,83.40
2024-02-21T15:07:05.716Z,83.30
2024-02-21T15:09:32.333Z,83.30
2024-02-21T15:11:58.967Z,83.20
2024-02-21T15:14:26.013Z,83.20
2024-02-21T15:16:52.818Z,83.20
2024-02-21T15:19:19.401Z,83.20
2024-02-21T15:21:45.929Z,83.00
2024-02-21T15:24:12.429Z,83.10
2024-02-21T15:26:38.956Z,83.20
2024-02-21T15:29:05.549Z,83.20
2024-02-21T15:31:32.163Z,83.10
2024-02-21T15:33:58.845Z,83.10
2024-02-21T15:36:25.649Z,83.50
2024-02-21T15:38:52.213Z,83.00
2024-02-21T15:41:18.739Z,83.10
2024-02-21T15:43:45.289Z,83.00
2024-02-21T15:46:11.832Z,83.00
2024-02-21T15:48:38.416Z,82.90
2024-02-21T15:51:04.964Z,82.90
2024-02-21T15:53:31.521Z,82.90
2024-02-21T15:55:58.232Z,82.50
2024-02-21T15:58:24.813Z,82.80
2024-02-21T16:00:51.398Z,83.20
2024-02-21T16:03:17.930Z,83.40
2024-02-21T16:05:44.503Z,83.30
2024-02-21T16:08:11.124Z,83.20
2024-02-21T16:10:37.685Z,83.10
2024-02-21T16:13:04.208Z,83.10
2024-02-21T16:15:30.774Z,83.00
2024-02-21T16:17:57.298Z,83.30
2024-02-21T16:20:23.930Z,83.10
2024-02-21T16:22:50.735Z,83.30
2024-02-21T16:25:17.319Z,83.10
2024-02-21T16:27:43.850Z,83.30
2024-02-21T16:30:10.404Z,83.40
2024-02-21T16:32:36.925Z,83.10
2024-02-21T16:35:03.500Z,83.00
2024-02-21T16:37:30.109Z,83.10
2024-02-21T16:39:56.624Z,83.40
2024-02-21T16:42:23.147Z,83.20
2024-02-21T16:44:49.641Z,83.20
2024-02-21T16:47:16.192Z,83.30
2024-02-21T16:49:42.775Z,83.80
2024-02-21T16:52:09.327Z,83.00
2024-02-21T16:54:35.820Z,83.50
2024-02-21T16:57:02.343Z,83.30
2024-02-21T16:59:28.839Z,82.90
2024-02-21T17:01:55.482Z,83.00
2024-02-21T17:04:22.276Z,83.00
2024-02-21T17:06:49.097Z,83.00
2024-02-21T17:09:15.723Z,82.90
2024-02-21T17:11:42.308Z,83.10
2024-02-21T17:14:08.944Z,82.70
2024-02-21T17:16:35.738Z,82.70
2024-02-21T17:19:02.431Z,82.80
2024-02-21T17:21:28.936Z,82.60
2024-02-21T17:23:55.433Z,82.90
2024-02-21T17:26:21.933Z,82.60
2024-02-21T17:28:48.476Z,82.60
2024-02-21T17:31:15.019Z,82.80
2024-02-21T17:33:41.615Z,82.90
2024-02-21T17:36:09.876Z,82.70
2024-02-21T17:38:37.040Z,82.70
2024-02-21T17:41:03.569Z,82.70
2024-02-21T17:43:30.165Z,82.90
2024-02-21T17:45:56.696Z,82.70
2024-02-21T17:48:23.267Z,82.70
2024-02-21T17:50:49.809Z,82.60
2024-02-21T17:53:16.364Z,82.50
2024-02-21T17:55:42.936Z,82.60
2024-02-21T17:58:09.491Z,82.60
2024-02-21T18:00:35.989Z,82.70
2024-02-21T18:03:02.510Z,82.50
2024-02-21T18:05:29.141Z,82.40
2024-02-21T18:07:55.791Z,82.40
2024-02-21T18:10:22.408Z,82.80
2024-02-21T18:12:48.967Z,83.30
2024-02-21T18:15:15.465Z,83.00
2024-02-21T18:17:42.345Z,82.60
2024-02-21T18:20:09.108Z,82.90
2024-02-21T18:22:35.695Z,83.60
2024-02-21T18:25:02.236Z,83.30
2024-02-21T18:27:28.748Z,83.00
2024-02-21T18:29:55.281Z,83.00
2024-02-21T18:32:21.795Z,82.90
2024-02-21T18:34:48.396Z,82.80
2024-02-21T18:37:15.001Z,83.00
2024-02-21T18:39:41.530Z,83.00
2024-02-21T18:42:08.040Z,83.30
2024-02-21T18:44:34.532Z,84.40
2024-02-21T18:47:01.051Z,83.50
2024-02-21T18:49:27.675Z,83.20
2024-02-21T18:51:54.219Z,83.30
2024-02-21T18:54:20.721Z,83.00
2024-02-21T18:56:47.224Z,83.60
2024-02-21T18:59:13.846Z,83.80
2024-02-21T19:01:40.445Z,84.10
2024-02-21T19:04:06.996Z,83.70
2024-02-21T19:06:33.556Z,83.50
2024-02-21T19:09:00.097Z,83.80
2024-02-21T19:11:26.718Z,83.70
2024-02-21T19:13:53.353Z,83.80
2024-02-21T19:16:19.888Z,84.10
2024-02-21T19:18:46.457Z,84.00
2024-02-21T19:21:12.967Z,83.60
2024-02-21T19:23:39.476Z,84.00
2024-02-21T19:26:06.043Z,84.00
2024-02-21T19:28:32.640Z,84.00
2024-02-21T19:30:59.183Z,84.10
2024-02-21T19:33:25.871Z,83.90
2024-02-21T19:35:52.395Z,84.50
2024-02-21T19:38:18.965Z,84.30
2024-02-21T19:40:47.232Z,84.30
2024-02-21T19:43:14.777Z,84.90
2024-02-21T19:45:41.292Z,84.70
2024-02-21T19:48:07.851Z,84.70
2024-02-21T19:50:34.625Z,84.10
2024-02-21T19:53:01.247Z,84.20
2024-02-21T19:55:27.833Z,84.60
2024-02-21T19:57:54.357Z,84.40
2024-02-21T20:00:20.907Z,84.50
2024-02-21T20:02:47.429Z,84.60
2024-02-21T20:05:14.164Z,84.50
2024-02-21T20:07:40.788Z,84.80
2024-02-21T20:10:07.366Z,85.00
2024-02-21T20:12:34.053Z,84.40
2024-02-21T20:15:00.604Z,84.10
2024-02-21T20:17:27.116Z,84.70
2024-02-21T20:19:53.641Z,84.20
2024-02-21T20:22:21.249Z,84.40
2024-02-21T20:24:48.101Z,84.20
2024-02-21T20:27:14.592Z,84.70
2024-02-21T20:29:41.101Z,84.50
2024-02-21T20:32:07.675Z,84.90
2024-02-21T20:34:34.538Z,84.40
2024-02-21T20:37:01.274Z,84.90
2024-02-21T20:39:27.877Z,85.50
2024-02-21T20:41:54.393Z,85.50
2024-02-21T20:44:20.904Z,85.70
2024-02-21T20:46:47.477Z,85.80
2024-02-21T20:49:14.039Z,86.20
2024-02-21T20:51:40.573Z,85.90
2024-02-21T20:54:07.075Z,85.10
2024-02-21T20:56:33.582Z,85.20
2024-02-21T20:59:00.105Z,85.10
2024-02-21T21:01:26.745Z,85.10
2024-02-21T21:03:53.325Z,85.40
2024-02-21T21:06:19.997Z,85.50
2024-02-21T21:08:46.687Z,85.60
2024-02-21T21:11:13.289Z,85.70
2024-02-21T21:13:39.859Z,86.10
2024-02-21T21:16:06.390Z,85.90
2024-02-21T21:18:33.464Z,85.90
2024-02-21T21:21:00.395Z,86.00
2024-02-21T21:23:26.956Z,85.50
2024-02-21T21:25:53.529Z,85.30
2024-02-21T21:28:20.123Z,85.50
2024-02-21T21:30:46.630Z,86.50
2024-02-21T21:33:13.241Z,85.80
2024-02-21T21:35:39.931Z,85.80
2024-02-21T21:38:06.576Z,86.60
2024-02-21T21:40:33.210Z,86.30
2024-02-21T21:42:59.773Z,86.60
2024-02-21T21:45:26.285Z,86.30
2024-02-21T21:47:52.792Z,86.00
2024-02-21T21:50:19.339Z,86.40
2024-02-21T21:52:45.915Z,86.30
2024-02-21T21:55:12.493Z,85.60
2024-02-21T21:57:39.080Z,85.80
2024-02-21T22:00:05.598Z,86.50
2024-02-21T22:02:32.240Z,86.50
2024-02-21T22:04:58.840Z,86.40
2024-02-21T22:07:25.459Z,86.70
2024-02-21T22:09:51.996Z,86.70
2024-02-21T22:12:18.492Z,86.00
2024-02-21T22:14:44.993Z,85.90
2024-02-21T22:17:11.646Z,86.00
2024-02-21T22:19:38.252Z,86.30
2024-02-21T22:22:04.761Z,86.30
2024-02-21T22:24:31.263Z,86.00
2024-02-21T22:26:57.791Z,85.90
2024-02-21T22:29:24.331Z,85.70
2024-02-21T22:31:50.920Z,86.00
2024-02-21T22:34:17.483Z,86.40
2024-02-21T22:36:44.069Z,86.60
2024-02-21T22:39:10.589Z,87.10
2024-02-21T22:41:37.094Z,87.30
2024-02-21T22:44:03.639Z,86.90
2024-02-21T22:46:30.182Z,87.00
2024-02-21T22:48:56.733Z,86.80
2024-02-21T22:51:23.262Z,86.70
2024-02-21T22:53:49.843Z,87.50
2024-02-21T22:56:16.429Z,87.50
2024-02-21T22:58:42.991Z,88.00
2024-02-21T23:01:09.575Z,87.80
2024-02-21T23:03:36.201Z,88.20
2024-02-21T23:06:02.751Z,88.00
2024-02-21T23:08:29.275Z,87.90
2024-02-21T23:10:57.154Z,87.50
2024-02-21T23:13:23.952Z,87.70
2024-02-21T23:15:52.165Z,87.50
2024-02-21T23:18:19.032Z,87.30
2024-02-21T23:20:45.607Z,87.80
2024-02-21T23:23:12.198Z,87.90
2024-02-21T23:25:38.831Z,88.10
2024-02-21T23:28:05.353Z,88.00
2024-02-21T23:30:31.886Z,87.50
2024-02-21T23:32:58.438Z,86.90
2024-02-21T23:35:25.017Z,87.30
2024-02-21T23:37:51.561Z,87.80
2024-02-21T23:40:18.096Z,88.20
2024-02-21T23:42:44.606Z,87.90
2024-02-21T23:45:11.131Z,86.80
2024-02-21T23:47:37.666Z,87.40
2024-02-21T23:50:04.256Z,87.90
2024-02-21T23:52:30.802Z,87.90
2024-02-21T23:54:57.305Z,88.00
2024-02-21T23:57:23.801Z,88.40
2024-02-21T23:59:50.379Z,88.10
